createdAt,value
2019-05-23T06:22:56.948Z,83.50
2019-05-23T06:25:53.092Z,84.50
2019-05-23T06:28:41.286Z,84.10
2019-05-23T06:31:25.374Z,83.90
2019-05-23T06:34:08.125Z,82.50
2019-05-23T06:36:51.878Z,83.30
2019-05-23T06:39:34.471Z,83.20
2019-05-23T06:42:17.781Z,83.60
2019-05-23T06:45:06.332Z,81.80
2019-05-23T06:47:55.797Z,81.40
2019-05-23T06:50:31.931Z,81.50
2019-05-23T06:53:22.027Z,81.20
2019-05-23T06:56:04.602Z,80.80
2019-05-23T06:58:52.929Z,80.50
2019-05-23T07:01:28.552Z,80.10
2019-05-23T07:04:18.866Z,79.60
2019-05-23T07:06:54.142Z,80.30
2019-05-23T07:09:42.999Z,80.30
2019-05-23T07:12:25.747Z,80.60
2019-05-23T07:15:08.262Z,80.00
2019-05-23T07:17:50.465Z,79.60
2019-05-23T07:20:39.336Z,79.60
2019-05-23T07:23:28.335Z,79.80
2019-05-23T07:26:19.647Z,79.40
2019-05-23T07:29:03.532Z,79.20
2019-05-23T07:31:59.255Z,80.00
2019-05-23T07:34:54.786Z,79.60
2019-05-23T07:37:49.955Z,79.30
2019-05-23T07:40:45.484Z,79.00
2019-05-23T07:43:33.867Z,79.00
2019-05-23T07:46:16.094Z,79.80
2019-05-23T07:49:12.372Z,78.70
2019-05-23T07:52:07.677Z,78.10
2019-05-23T07:55:04.136Z,77.60
2019-05-23T07:57:52.401Z,78.10
2019-05-23T08:00:33.447Z,76.60
2019-05-23T08:03:23.243Z,77.40
2019-05-23T08:05:59.063Z,74.40
2019-05-23T08:08:48.135Z,74.30
2019-05-23T08:11:24.288Z,74.90
2019-05-23T08:14:12.462Z,75.40
2019-05-23T08:16:56.097Z,74.80
2019-05-23T08:19:49.629Z,72.70
2019-05-23T08:22:21.433Z,73.00
2019-05-23T08:25:11.482Z,71.60
2019-05-23T08:27:47.221Z,72.30
2019-05-23T08:30:36.726Z,71.20
2019-05-23T08:33:20.865Z,69.50
2019-05-23T08:36:17.203Z,68.30
2019-05-23T08:39:07.777Z,66.60
2019-05-23T08:41:43.098Z,66.20
2019-05-23T08:44:25.873Z,66.80
2019-05-23T08:47:01.147Z,64.80
2019-05-23T08:49:49.848Z,65.40
2019-05-23T08:52:32.854Z,63.90
2019-05-23T08:55:22.055Z,64.00
2019-05-23T08:58:04.938Z,62.70
2019-05-23T09:00:56.454Z,63.40
2019-05-23T09:03:38.526Z,63.70
2019-05-23T09:06:21.717Z,60.10
2019-05-23T09:09:03.691Z,59.90
2019-05-23T09:11:52.522Z,59.00
2019-05-23T09:14:34.876Z,59.00
2019-05-23T09:17:18.112Z,57.90
2019-05-23T09:20:00.396Z,59.40
2019-05-23T09:22:55.253Z,58.80
2019-05-23T09:25:50.495Z,57.90
2019-05-23T09:28:45.490Z,58.00
2019-05-23T09:31:42.019Z,56.10
2019-05-23T09:34:36.674Z,57.00
2019-05-23T09:37:25.942Z,56.20
2019-05-23T09:40:01.522Z,55.70
2019-05-23T09:42:51.919Z,55.00
2019-05-23T09:45:28.221Z,55.50
2019-05-23T09:48:17.237Z,56.00
2019-05-23T09:51:06.246Z,57.10
2019-05-23T09:53:55.721Z,55.50
2019-05-23T09:56:32.098Z,55.00
2019-05-23T09:59:21.054Z,54.30
2019-05-23T10:01:57.200Z,54.60
2019-05-23T10:04:45.484Z,55.80
2019-05-23T10:07:21.442Z,56.60
2019-05-23T10:10:10.353Z,56.50
2019-05-23T10:12:52.267Z,56.60
2019-05-23T10:15:37.502Z,57.10
2019-05-23T10:18:23.013Z,56.50
2019-05-23T10:21:05.184Z,56.40
2019-05-23T10:24:01.045Z,57.20
2019-05-23T10:26:56.360Z,56.10
2019-05-23T10:29:51.945Z,55.70
2019-05-23T10:32:40.170Z,56.10
2019-05-23T10:35:16.918Z,56.60
2019-05-23T10:38:06.563Z,58.30
2019-05-23T10:40:48.961Z,58.00
2019-05-23T10:43:38.387Z,55.60
2019-05-23T10:46:14.639Z,56.50
2019-05-23T10:49:02.841Z,56.10
2019-05-23T10:51:38.088Z,58.40
2019-05-23T10:54:27.727Z,58.80
2019-05-23T10:57:03.596Z,58.80
2019-05-23T10:59:53.470Z,57.90
2019-05-23T11:02:28.792Z,57.40
2019-05-23T11:05:19.228Z,57.60
2019-05-23T11:07:55.293Z,56.60
2019-05-23T11:10:44.231Z,57.60
2019-05-23T11:13:19.900Z,57.60
2019-05-23T11:16:08.801Z,58.80
2019-05-23T11:18:52.424Z,59.40
2019-05-23T11:21:41.806Z,59.00
2019-05-23T11:24:37.329Z,57.90
2019-05-23T11:27:18.541Z,58.10
2019-05-23T11:30:07.160Z,57.90
2019-05-23T11:32:43.321Z,57.70
2019-05-23T11:35:31.644Z,57.30
2019-05-23T11:38:14.071Z,58.80
2019-05-23T11:40:56.977Z,58.30
2019-05-23T11:43:38.808Z,59.30
2019-05-23T11:46:30.055Z,59.00
2019-05-23T11:49:13.269Z,59.50
2019-05-23T11:52:02.979Z,57.90
2019-05-23T11:54:39.106Z,58.10
2019-05-23T11:57:28.220Z,56.90
2019-05-23T12:00:08.119Z,57.20
2019-05-23T12:02:57.328Z,57.90
2019-05-23T12:05:33.408Z,56.70
2019-05-23T12:08:22.481Z,56.40
2019-05-23T12:10:58.352Z,56.20
2019-05-23T12:13:47.044Z,57.50
2019-05-23T12:16:30.092Z,56.90
2019-05-23T12:19:12.110Z,54.90
2019-05-23T12:21:54.273Z,55.40
2019-05-23T12:24:50.044Z,57.00
2019-05-23T12:27:45.479Z,56.40
2019-05-23T12:30:42.341Z,58.00
2019-05-23T12:33:30.551Z,57.80
2019-05-23T12:36:06.657Z,57.10
2019-05-23T12:38:55.499Z,55.30
2019-05-23T12:41:31.985Z,55.40
2019-05-23T12:44:21.433Z,55.90
2019-05-23T12:47:04.212Z,54.50
2019-05-23T12:50:01.037Z,56.30
2019-05-23T12:52:50.034Z,53.50
2019-05-23T12:55:26.066Z,54.70
2019-05-23T12:58:15.864Z,55.30
2019-05-23T13:00:58.882Z,55.00
2019-05-23T13:03:47.707Z,55.40
2019-05-23T13:06:24.477Z,53.90
2019-05-23T13:09:14.735Z,53.90
2019-05-23T13:11:58.129Z,54.30
2019-05-23T13:14:58.675Z,55.00
2019-05-23T13:17:53.272Z,54.80
2019-05-23T13:20:48.726Z,56.50
2019-05-23T13:23:37.245Z,55.90
2019-05-23T13:26:19.588Z,57.00
2019-05-23T13:29:08.546Z,57.20
2019-05-23T13:31:45.209Z,56.60
2019-05-23T13:34:33.942Z,55.30
2019-05-23T13:37:18.160Z,54.50
2019-05-23T13:40:14.381Z,57.00
2019-05-23T13:43:10.805Z,56.30
2019-05-23T13:46:06.061Z,56.80
2019-05-23T13:49:01.825Z,56.30
2019-05-23T13:51:57.346Z,56.20
2019-05-23T13:54:46.022Z,56.50
2019-05-23T13:57:21.671Z,58.70
2019-05-23T14:00:15.736Z,56.70
2019-05-23T14:02:51.530Z,55.30
2019-05-23T14:05:41.179Z,56.40
2019-05-23T14:08:23.930Z,56.90
2019-05-23T14:11:18.642Z,56.40
2019-05-23T14:14:08.246Z,55.00
2019-05-23T14:16:51.847Z,56.50
2019-05-23T14:19:40.635Z,57.10
2019-05-23T14:22:22.838Z,56.60
2019-05-23T14:25:21.567Z,55.40
2019-05-23T14:28:19.015Z,56.10
2019-05-23T14:31:09.342Z,56.40
2019-05-23T14:33:54.040Z,56.10
2019-05-23T14:36:48.140Z,55.50
2019-05-23T14:39:35.742Z,56.70
2019-05-23T14:42:36.752Z,54.90
2019-05-23T14:45:43.260Z,55.90
2019-05-23T14:48:33.295Z,55.40
2019-05-23T14:51:34.829Z,56.40
2019-05-23T14:54:29.113Z,54.40
2019-05-23T14:57:26.526Z,53.80
2019-05-23T15:00:16.218Z,54.00
2019-05-23T15:02:52.025Z,51.80
2019-05-23T15:05:40.392Z,53.20
2019-05-23T15:08:23.040Z,54.80
2019-05-23T15:11:19.221Z,55.00
2019-05-23T15:14:14.454Z,54.60
2019-05-23T15:17:04.459Z,56.10
2019-05-23T15:19:46.718Z,54.90
2019-05-23T15:22:41.785Z,54.90
2019-05-23T15:25:37.343Z,54.60
2019-05-23T15:28:33.574Z,54.60
2019-05-23T15:31:29.025Z,54.60
2019-05-23T15:34:17.327Z,55.40
2019-05-23T15:36:52.681Z,55.30
2019-05-23T15:39:42.360Z,54.30
2019-05-23T15:42:18.094Z,53.80
2019-05-23T15:45:06.907Z,53.00
2019-05-23T15:47:43.398Z,54.00
2019-05-23T15:50:36.814Z,53.90
2019-05-23T15:53:21.341Z,53.60
2019-05-23T15:56:26.923Z,53.40
2019-05-23T15:59:00.611Z,53.10
2019-05-23T16:01:51.132Z,52.40
2019-05-23T16:04:40.702Z,52.70
2019-05-23T16:07:16.777Z,53.50
2019-05-23T16:10:05.577Z,53.90
2019-05-23T16:12:48.841Z,52.50
2019-05-23T16:15:31.771Z,53.20
2019-05-23T16:18:22.021Z,52.50
2019-05-23T16:21:06.818Z,52.20
2019-05-23T16:23:52.475Z,52.50
2019-05-23T16:26:35.183Z,52.90
2019-05-23T16:29:19.433Z,54.30
2019-05-23T16:32:07.631Z,54.50
2019-05-23T16:34:50.124Z,54.50
2019-05-23T16:37:32.505Z,54.20
2019-05-23T16:40:15.928Z,53.90
2019-05-23T16:43:06.058Z,52.90
2019-05-23T16:45:41.701Z,53.20
2019-05-23T16:48:30.678Z,54.00
2019-05-23T16:51:13.247Z,54.60
2019-05-23T16:53:57.589Z,55.40
2019-05-23T16:56:47.232Z,56.10
2019-05-23T16:59:36.562Z,55.00
2019-05-23T17:02:23.082Z,54.90
2019-05-23T17:05:22.654Z,55.10
2019-05-23T17:08:22.892Z,55.10
2019-05-23T17:11:10.625Z,55.70
2019-05-23T17:13:54.752Z,55.60
2019-05-23T17:16:45.107Z,56.00
2019-05-23T17:19:33.321Z,56.00
2019-05-23T17:22:35.862Z,55.50
2019-05-23T17:25:34.668Z,55.50
2019-05-23T17:28:35.294Z,56.00
2019-05-23T17:31:22.338Z,55.80
2019-05-23T17:34:04.104Z,55.80
2019-05-23T17:36:46.969Z,56.50
2019-05-23T17:39:42.541Z,56.90
2019-05-23T17:42:39.913Z,57.10
2019-05-23T17:45:36.126Z,56.80
2019-05-23T17:48:24.718Z,57.40
2019-05-23T17:51:01.019Z,57.50
2019-05-23T17:53:50.416Z,58.10
2019-05-23T17:56:26.170Z,58.20
2019-05-23T17:59:15.168Z,58.30
2019-05-23T18:01:57.373Z,58.20
2019-05-23T18:04:53.377Z,59.00
2019-05-23T18:07:47.984Z,57.80
2019-05-23T18:10:45.090Z,57.90
2019-05-23T18:13:16.856Z,58.40
2019-05-23T18:16:06.069Z,58.30
2019-05-23T18:18:48.245Z,59.00
2019-05-23T18:21:31.144Z,59.60
2019-05-23T18:24:15.594Z,60.50
2019-05-23T18:26:58.226Z,60.30
2019-05-23T18:29:53.799Z,60.80
2019-05-23T18:32:49.919Z,61.00
2019-05-23T18:35:32.148Z,60.70
2019-05-23T18:38:21.205Z,61.10
2019-05-23T18:41:03.134Z,61.50
2019-05-23T18:43:48.826Z,62.00
2019-05-23T18:46:42.795Z,62.50
2019-05-23T18:49:34.105Z,63.00
2019-05-23T18:52:10.918Z,63.50
2019-05-23T18:54:59.325Z,64.40
2019-05-23T18:57:37.107Z,64.10
2019-05-23T19:00:26.184Z,64.20
2019-05-23T19:03:08.205Z,64.50
2019-05-23T19:05:49.777Z,64.40
2019-05-23T19:08:33.105Z,64.80
2019-05-23T19:11:20.894Z,65.00
2019-05-23T19:13:59.582Z,65.00
2019-05-23T19:16:42.620Z,65.50
2019-05-23T19:19:25.816Z,65.40
2019-05-23T19:22:15.161Z,65.80
2019-05-23T19:24:56.989Z,65.90
2019-05-23T19:27:40.041Z,66.00
2019-05-23T19:30:29.496Z,66.00
2019-05-23T19:33:24.788Z,66.40
2019-05-23T19:36:15.978Z,66.50
2019-05-23T19:38:59.888Z,66.80
2019-05-23T19:41:50.342Z,67.00
2019-05-23T19:44:26.367Z,67.30
2019-05-23T19:47:14.845Z,67.10
2019-05-23T19:49:57.246Z,67.20
2019-05-23T19:52:46.688Z,67.40
2019-05-23T19:55:22.400Z,67.80
2019-05-23T19:58:13.417Z,67.90
2019-05-23T20:00:55.819Z,68.10
2019-05-23T20:03:44.452Z,68.10
2019-05-23T20:06:28.188Z,69.30
2019-05-23T20:09:24.869Z,68.70
2019-05-23T20:12:21.233Z,68.00
2019-05-23T20:15:10.219Z,67.60
2019-05-23T20:17:53.014Z,68.30
2019-05-23T20:20:49.124Z,68.80
2019-05-23T20:23:38.310Z,69.20
2019-05-23T20:26:13.788Z,69.40
2019-05-23T20:29:03.397Z,69.50
2019-05-23T20:31:39.884Z,70.00
2019-05-23T20:34:30.269Z,70.00
2019-05-23T20:37:12.782Z,69.80
2019-05-23T20:40:09.200Z,69.80
2019-05-23T20:42:57.498Z,70.10
2019-05-23T20:45:33.527Z,70.30
2019-05-23T20:48:22.495Z,70.50
2019-05-23T20:50:58.244Z,70.70
2019-05-23T20:53:47.714Z,70.70
2019-05-23T20:56:23.904Z,70.70
2019-05-23T20:59:13.889Z,70.80
2019-05-23T21:01:56.728Z,70.70
2019-05-23T21:04:45.211Z,70.80
2019-05-23T21:07:21.718Z,71.20
2019-05-23T21:10:10.632Z,71.40
2019-05-23T21:12:46.912Z,71.40
2019-05-23T21:15:35.502Z,71.50
2019-05-23T21:18:18.736Z,72.30
2019-05-23T21:21:14.211Z,71.60
2019-05-23T21:24:10.486Z,71.60
2019-05-23T21:27:06.707Z,71.30
2019-05-23T21:29:55.429Z,71.50
2019-05-23T21:32:37.414Z,71.00
2019-05-23T21:35:26.706Z,71.00
2019-05-23T21:38:08.707Z,71.20
2019-05-23T21:41:03.826Z,70.90
2019-05-23T21:44:01.281Z,70.70
2019-05-23T21:46:56.731Z,71.10
2019-05-23T21:49:51.798Z,70.90
2019-05-23T21:52:47.812Z,71.20
2019-05-23T21:55:50.616Z,71.40
2019-05-23T21:58:45.804Z,71.80
2019-05-23T22:01:35.718Z,72.00
2019-05-23T22:04:29.058Z,72.20
2019-05-23T22:07:11.184Z,72.40
2019-05-23T22:09:53.371Z,73.40
2019-05-23T22:12:35.494Z,72.90
2019-05-23T22:15:18.824Z,73.20
2019-05-23T22:18:00.487Z,73.30
2019-05-23T22:20:56.157Z,73.30
2019-05-23T22:23:46.569Z,73.30
2019-05-23T22:26:29.230Z,73.50
2019-05-23T22:29:24.981Z,73.90
2019-05-23T22:32:21.207Z,73.90
2019-05-23T22:35:20.670Z,73.90
2019-05-23T22:38:09.620Z,73.90
2019-05-23T22:40:45.670Z,74.50
2019-05-23T22:43:34.849Z,74.70
2019-05-23T22:46:10.485Z,74.90
2019-05-23T22:48:59.142Z,75.10
2019-05-23T22:51:34.957Z,75.40
2019-05-23T22:54:23.525Z,75.90
2019-05-23T22:56:59.459Z,75.60
2019-05-23T22:59:48.508Z,74.00
2019-05-23T23:02:24.314Z,73.40
2019-05-23T23:05:14.432Z,73.00
2019-05-23T23:07:57.071Z,72.70
2019-05-23T23:10:52.680Z,73.00
2019-05-23T23:13:48.395Z,73.20
2019-05-23T23:16:43.081Z,73.20
2019-05-23T23:19:32.306Z,73.50
2019-05-23T23:22:07.863Z,74.00
2019-05-23T23:24:56.896Z,74.30
2019-05-23T23:27:32.361Z,74.40
2019-05-23T23:30:23.474Z,74.40
2019-05-23T23:32:59.402Z,75.60
2019-05-23T23:35:48.477Z,75.90
2019-05-23T23:38:30.956Z,76.40
2019-05-23T23:41:19.303Z,76.70
2019-05-23T23:43:59.154Z,76.90
2019-05-23T23:47:03.476Z,77.10
2019-05-23T23:50:03.916Z,77.40
2019-05-23T23:53:18.000Z,76.80
2019-05-23T23:56:24.869Z,76.60
2019-05-23T23:58:59.660Z,76.50
